Terminal Aerodrome Forecast
Issued by NWS

Home | Current Version | Previous Version | Text Only | Print | Product List | Glossary On
Versions: 1 2 3 4 5 6 7 8 9 10 11 12 13 14 15 16 17
000
FTUS45 KTWC 200521
TAFOLS
TAF
KOLS 200521Z 2006/2106 22005KT P6SM SCT035 BKN050
     FM200800 VRB04KT P6SM SCT060 BKN080
     FM201000 VRB03KT P6SM VCFG FEW010 SCT080
     FM201600 VRB03KT P6SM FEW025 SCT080
     FM202000 34007KT P6SM FEW070=

USA.gov is the U.S. government's official web portal to all federal, state and local government web resources and services.